Map

Track Data

SID SEASON NUMBER BASIN SUBBASIN NAME ISO_TIME NATURE LAT LON WMO_WIND WMO_PRES WMO_AGENCY TRACK_TYPE DIST2LAND LANDFALL IFLAG USA_AGENCY USA_ATCF_ID USA_LAT USA_LON USA_RECORD USA_STATUS USA_WIND USA_PRES USA_SSHS USA_R34_NE USA_R34_SE USA_R34_SW USA_R34_NW USA_R50_NE USA_R50_SE USA_R50_SW USA_R50_NW USA_R64_NE USA_R64_SE USA_R64_SW USA_R64_NW USA_POCI USA_ROCI USA_RMW USA_EYE TOKYO_LAT TOKYO_LON TOKYO_GRADE TOKYO_WIND TOKYO_PRES TOKYO_R50_DIR TOKYO_R50_LONG TOKYO_R50_SHORT TOKYO_R30_DIR TOKYO_R30_LONG TOKYO_R30_SHORT TOKYO_LAND CMA_LAT CMA_LON CMA_CAT CMA_WIND CMA_PRES HKO_LAT HKO_LON HKO_CAT HKO_WIND HKO_PRES NEWDELHI_LAT NEWDELHI_LON NEWDELHI_GRADE NEWDELHI_WIND NEWDELHI_PRES NEWDELHI_CI NEWDELHI_DP NEWDELHI_POCI REUNION_LAT REUNION_LON REUNION_TYPE REUNION_WIND REUNION_PRES REUNION_TNUM REUNION_CI REUNION_RMW REUNION_R34_NE REUNION_R34_SE REUNION_R34_SW REUNION_R34_NW REUNION_R50_NE REUNION_R50_SE REUNION_R50_SW REUNION_R50_NW REUNION_R64_NE REUNION_R64_SE REUNION_R64_SW REUNION_R64_NW BOM_LAT BOM_LON BOM_TYPE BOM_WIND BOM_PRES BOM_TNUM BOM_CI BOM_RMW BOM_R34_NE BOM_R34_SE BOM_R34_SW BOM_R34_NW BOM_R50_NE BOM_R50_SE BOM_R50_SW BOM_R50_NW BOM_R64_NE BOM_R64_SE BOM_R64_SW BOM_R64_NW BOM_ROCI BOM_POCI BOM_EYE BOM_POS_METHOD BOM_PRES_METHOD NADI_LAT NADI_LON NADI_CAT NADI_WIND NADI_PRES WELLINGTON_LAT WELLINGTON_LON WELLINGTON_WIND WELLINGTON_PRES DS824_LAT DS824_LON DS824_STAGE DS824_WIND DS824_PRES TD9636_LAT TD9636_LON TD9636_STAGE TD9636_WIND TD9636_PRES TD9635_LAT TD9635_LON TD9635_WIND TD9635_PRES TD9635_ROCI NEUMANN_LAT NEUMANN_LON NEUMANN_CLASS NEUMANN_WIND NEUMANN_PRES MLC_LAT MLC_LON MLC_CLASS MLC_WIND MLC_PRES USA_GUST BOM_GUST BOM_GUST_PER REUNION_GUST REUNION_GUST_PER USA_SEAHGT USA_SEARAD_NE USA_SEARAD_SE USA_SEARAD_SW USA_SEARAD_NW STORM_SPEED STORM_DIR
1965267N19250 1965 100 EP MM HAZEL 1965-09-24 00:00:00 TS 19.0000 -109.800 25 hurdat_epa main 436 424 O________OO___ hurdat_epa EP101965 19.0000 -109.800 TD 25 -1 19.0000 -109.800 TC 25 19.0000 -109.800 1 4 325
1965267N19250 1965 100 EP MM HAZEL 1965-09-24 03:00:00 TS 19.1458 -109.904 main 424 402 P________PP___ EP101965 19.1400 -109.907 TD 25 -1 19.1400 -109.907 TC 25 19.1688 -109.889 1 4 329
1965267N19250 1965 100 EP MM HAZEL 1965-09-24 06:00:00 TS 19.3080 -109.995 25 hurdat_epa main 402 380 O________OP___ hurdat_epa EP101965 19.3000 -110.000 TD 25 -1 19.3000 -110.000 TC 25 19.3401 -109.973 1 4 337
1965267N19250 1965 100 EP MM HAZEL 1965-09-24 09:00:00 TS 19.4973 -110.061 main 380 357 P________PP___ EP101965 19.4925 -110.065 TD 25 -1 19.4925 -110.065 TC 25 19.5163 -110.045 1 4 346
1965267N19250 1965 100 EP MM HAZEL 1965-09-24 12:00:00 TS 19.7000 -110.100 25 hurdat_epa main 357 335 O________OO___ hurdat_epa EP101965 19.7000 -110.100 TD 25 -1 19.7000 -110.100 TC 25 19.7000 -110.100 2 4 352
1965267N19250 1965 100 EP MM HAZEL 1965-09-24 15:00:00 TS 19.8929 -110.118 main 335 313 P________PP___ EP101965 19.8925 -110.115 TD 35 0 19.8925 -110.115 TC 35 19.8943 -110.132 2 4 357
1965267N19250 1965 100 EP MM HAZEL 1965-09-24 18:00:00 TS 20.1010 -110.106 45 hurdat_epa main 313 290 O________OP___ hurdat_epa EP101965 20.1000 -110.100 TS 45 0 20.1000 -110.100 TC 45 20.1048 -110.132 2 4 6
1965267N19250 1965 100 EP MM HAZEL 1965-09-24 21:00:00 TS 20.3296 -110.076 main 290 257 P________PP___ EP101965 20.3275 -110.072 TS 45 0 20.3275 -110.072 TC 45 20.3380 -110.091 2 5 11
1965267N19250 1965 100 EP MM HAZEL 1965-09-25 00:00:00 TS 20.6000 -110.000 45 hurdat_epa main 257 223 O________OO___ hurdat_epa EP101965 20.6000 -110.000 TS 45 0 20.6000 -110.000 TC 45 20.6000 -110.000 2 6 17
1965267N19250 1965 100 EP MM HAZEL 1965-09-25 03:00:00 TS 20.9389 -109.877 main 223 179 P________PP___ EP101965 20.9425 -109.880 TS 45 0 20.9425 -109.880 TC 45 20.9246 -109.867 2 8 22
1965267N19250 1965 100 EP MM HAZEL 1965-09-25 06:00:00 TS 21.2945 -109.697 45 hurdat_epa main 179 148 O________OP___ hurdat_epa EP101965 21.3000 -109.700 TS 45 0 21.3000 -109.700 TC 45 21.2724 -109.683 2 8 29
1965267N19250 1965 100 EP MM HAZEL 1965-09-25 09:00:00 TS 21.6198 -109.470 main 148 127 P________PP___ EP101965 21.6225 -109.473 TS 45 0 21.6225 -109.473 TC 45 21.6090 -109.458 2 8 37
1965267N19250 1965 100 EP MM HAZEL 1965-09-25 12:00:00 TS 21.9000 -109.200 45 hurdat_epa main 127 121 O________OO___ hurdat_epa EP101965 21.9000 -109.200 TS 45 0 21.9000 -109.200 TC 45 21.9000 -109.200 2 7 46
1965267N19250 1965 100 EP MM HAZEL 1965-09-25 15:00:00 TS 22.1257 -108.912 main 128 121 P________PP___ EP101965 22.1300 -108.907 TS 45 0 22.1300 -108.907 TC 45 22.1085 -108.928 2 7 54
1965267N19250 1965 100 EP MM HAZEL 1965-09-25 18:00:00 TS 22.2935 -108.606 45 hurdat_epa main 136 136 O________OP___ hurdat_epa EP101965 22.3000 -108.600 TS 45 0 22.3000 -108.600 TC 45 22.2675 -108.630 2 6 63
1965267N19250 1965 100 EP MM HAZEL 1965-09-25 21:00:00 TS 22.4105 -108.303 main 152 152 P________PP___ EP101965 22.4149 -108.300 TS 45 0 22.4149 -108.300 TC 45 22.3928 -108.316 2 6 70
1965267N19250 1965 100 EP MM HAZEL 1965-09-26 00:00:00 TS 22.5000 -108.000 45 hurdat_epa main 172 149 O________OO___ hurdat_epa EP101965 22.5000 -108.000 TS 45 0 22.5000 -108.000 TC 45 22.5000 -108.000 2 6 71
1965267N19250 1965 100 EP MM HAZEL 1965-09-26 03:00:00 TS 22.6004 -107.698 main 149 116 P________PP___ EP101965 22.5999 -107.700 TS 45 0 22.5999 -107.700 TC 45 22.6023 -107.692 2 6 70
1965267N19250 1965 100 EP MM HAZEL 1965-09-26 06:00:00 TS 22.7004 -107.398 45 hurdat_epa main 116 84 O________OP___ hurdat_epa EP101965 22.7000 -107.400 TS 45 0 22.7000 -107.400 TC 45 22.7028 -107.390 2 6 70
1965267N19250 1965 100 EP MM HAZEL 1965-09-26 09:00:00 TS 22.8001 -107.106 main 84 52 P________PP___ EP101965 22.7999 -107.107 TS 45 0 22.7999 -107.107 TC 45 22.8019 -107.094 2 6 70
1965267N19250 1965 100 EP MM HAZEL 1965-09-26 12:00:00 TS 22.9000 -106.800 45 hurdat_epa main 52 23 O________OO___ hurdat_epa EP101965 22.9000 -106.800 TS 45 0 22.9000 -106.800 TC 45 22.9000 -106.800 2 6 72
1965267N19250 1965 100 EP MM HAZEL 1965-09-26 15:00:00 TS 22.9924 -106.472 main 23 0 P________P____ EP101965 22.9924 -106.472 TS 45 0 22.9924 -106.472 TC 45 2 7 73
1965267N19250 1965 100 EP MM HAZEL 1965-09-26 18:00:00 MX 23.1000 -106.100 45 hurdat_epa main 0 0 O________O____ hurdat_epa EP101965 23.1000 -106.100 TS 45 0 23.1000 -106.100 45 2 8 71
1965267N19250 1965 100 EP MM HAZEL 1965-09-26 21:00:00 MX 23.2403 -105.668 main 0 0 P________P____ EP101965 23.2403 -105.668 TS 45 0 23.2403 -105.668 45 2 9 70
1965267N19250 1965 100 EP MM HAZEL 1965-09-27 00:00:00 MX 23.4000 -105.200 45 hurdat_epa main 0 O________O____ hurdat_epa EP101965 23.4000 -105.200 TS 45 0 23.4000 -105.200 45 9 70

About IBTrACS Database

This database is a web-friendly format of International Best Track Archive for Climate Stewardship (IBTrACS), a global best track data archive curated by NOAA dating back to 1842.

Updated: 2021-10-21